sensor_id;sensor_type;location;lat;lon;timestamp;temperature;humidity
65203;HTU21D;51788;45.124;38.966;2023-05-10T00:02:08;10.38;97.16
65203;HTU21D;51788;45.124;38.966;2023-05-10T00:04:34;10.34;97.30
65203;HTU21D;51788;45.124;38.966;2023-05-10T00:07:00;10.34;97.38
65203;HTU21D;51788;45.124;38.966;2023-05-10T00:09:26;10.40;97.28
65203;HTU21D;51788;45.124;38.966;2023-05-10T00:11:52;10.38;97.13
65203;HTU21D;51788;45.124;38.966;2023-05-10T00:14:17;10.33;97.07
65203;HTU21D;51788;45.124;38.966;2023-05-10T00:16:44;10.23;97.28
65203;HTU21D;51788;45.124;38.966;2023-05-10T00:19:10;10.12;97.29
65203;HTU21D;51788;45.124;38.966;2023-05-10T00:21:36;10.11;97.65
65203;HTU21D;51788;45.124;38.966;2023-05-10T00:24:02;10.19;97.47
65203;HTU21D;51788;45.124;38.966;2023-05-10T00:26:28;10.24;97.32
65203;HTU21D;51788;45.124;38.966;2023-05-10T00:28:55;10.27;97.20
65203;HTU21D;51788;45.124;38.966;2023-05-10T00:31:22;10.34;97.07
65203;HTU21D;51788;45.124;38.966;2023-05-10T00:33:49;10.36;96.90
65203;HTU21D;51788;45.124;38.966;2023-05-10T00:36:15;10.40;96.86
65203;HTU21D;51788;45.124;38.966;2023-05-10T00:38:41;10.36;96.81
65203;HTU21D;51788;45.124;38.966;2023-05-10T00:41:07;10.37;96.91
65203;HTU21D;51788;45.124;38.966;2023-05-10T00:43:35;10.40;96.84
65203;HTU21D;51788;45.124;38.966;2023-05-10T00:46:04;10.41;96.78
65203;HTU21D;51788;45.124;38.966;2023-05-10T00:48:30;10.45;96.74
65203;HTU21D;51788;45.124;38.966;2023-05-10T00:50:56;10.45;96.66
65203;HTU21D;51788;45.124;38.966;2023-05-10T00:53:22;10.46;96.53
65203;HTU21D;51788;45.124;38.966;2023-05-10T00:55:48;10.43;96.56
65203;HTU21D;51788;45.124;38.966;2023-05-10T00:58:14;10.43;96.54
65203;HTU21D;51788;45.124;38.966;2023-05-10T01:00:42;10.50;96.47
65203;HTU21D;51788;45.124;38.966;2023-05-10T01:03:10;10.55;96.33
65203;HTU21D;51788;45.124;38.966;2023-05-10T01:05:37;10.54;96.23
65203;HTU21D;51788;45.124;38.966;2023-05-10T01:08:03;10.54;96.20
65203;HTU21D;51788;45.124;38.966;2023-05-10T01:10:30;10.54;96.25
65203;HTU21D;51788;45.124;38.966;2023-05-10T01:12:56;10.59;96.19
65203;HTU21D;51788;45.124;38.966;2023-05-10T01:15:24;10.56;96.04
65203;HTU21D;51788;45.124;38.966;2023-05-10T01:17:51;10.53;96.10
65203;HTU21D;51788;45.124;38.966;2023-05-10T01:20:18;10.44;96.20
65203;HTU21D;51788;45.124;38.966;2023-05-10T01:25:19;10.38;96.45
65203;HTU21D;51788;45.124;38.966;2023-05-10T01:30:55;10.35;96.37
65203;HTU21D;51788;45.124;38.966;2023-05-10T01:33:33;10.35;96.32
65203;HTU21D;51788;45.124;38.966;2023-05-10T01:36:08;10.29;96.36
65203;HTU21D;51788;45.124;38.966;2023-05-10T01:39:02;10.28;96.37
65203;HTU21D;51788;45.124;38.966;2023-05-10T01:41:42;10.21;96.46
65203;HTU21D;51788;45.124;38.966;2023-05-10T01:44:17;10.22;96.58
65203;HTU21D;51788;45.124;38.966;2023-05-10T01:47:15;10.19;96.58
65203;HTU21D;51788;45.124;38.966;2023-05-10T01:49:45;10.22;96.52
65203;HTU21D;51788;45.124;38.966;2023-05-10T01:52:16;10.21;96.39
65203;HTU21D;51788;45.124;38.966;2023-05-10T01:54:52;10.18;96.40
65203;HTU21D;51788;45.124;38.966;2023-05-10T01:57:20;10.09;96.39
65203;HTU21D;51788;45.124;38.966;2023-05-10T01:59:49;10.01;96.59
65203;HTU21D;51788;45.124;38.966;2023-05-10T02:02:17;9.95;96.62
65203;HTU21D;51788;45.124;38.966;2023-05-10T02:04:45;9.92;96.63
65203;HTU21D;51788;45.124;38.966;2023-05-10T02:07:12;9.86;96.80
65203;HTU21D;51788;45.124;38.966;2023-05-10T02:09:41;9.93;96.80
65203;HTU21D;51788;45.124;38.966;2023-05-10T02:12:12;9.97;96.67
65203;HTU21D;51788;45.124;38.966;2023-05-10T02:14:39;9.97;96.54
65203;HTU21D;51788;45.124;38.966;2023-05-10T02:17:07;10.05;96.51
65203;HTU21D;51788;45.124;38.966;2023-05-10T02:19:36;10.11;96.33
65203;HTU21D;51788;45.124;38.966;2023-05-10T02:22:03;10.11;96.31
65203;HTU21D;51788;45.124;38.966;2023-05-10T02:24:33;10.14;96.24
65203;HTU21D;51788;45.124;38.966;2023-05-10T02:27:02;10.19;96.19
65203;HTU21D;51788;45.124;38.966;2023-05-10T02:29:30;10.22;96.15
65203;HTU21D;51788;45.124;38.966;2023-05-10T02:31:57;10.26;96.07
65203;HTU21D;51788;45.124;38.966;2023-05-10T02:34:27;10.30;95.98
65203;HTU21D;51788;45.124;38.966;2023-05-10T02:36:54;10.26;95.96
65203;HTU21D;51788;45.124;38.966;2023-05-10T02:39:22;10.27;96.02
65203;HTU21D;51788;45.124;38.966;2023-05-10T02:41:50;10.30;96.08
65203;HTU21D;51788;45.124;38.966;2023-05-10T02:44:19;10.35;96.01
65203;HTU21D;51788;45.124;38.966;2023-05-10T02:46:46;10.39;95.92
65203;HTU21D;51788;45.124;38.966;2023-05-10T02:49:12;10.37;95.88
65203;HTU21D;51788;45.124;38.966;2023-05-10T02:51:44;10.36;95.91
65203;HTU21D;51788;45.124;38.966;2023-05-10T02:54:13;10.36;95.92
65203;HTU21D;51788;45.124;38.966;2023-05-10T02:56:50;10.37;95.94
65203;HTU21D;51788;45.124;38.966;2023-05-10T02:59:17;10.40;95.85
65203;HTU21D;51788;45.124;38.966;2023-05-10T03:01:43;10.42;95.78
65203;HTU21D;51788;45.124;38.966;2023-05-10T03:04:08;10.42;95.75
65203;HTU21D;51788;45.124;38.966;2023-05-10T03:06:35;10.41;95.74
65203;HTU21D;51788;45.124;38.966;2023-05-10T03:09:02;10.43;95.77
65203;HTU21D;51788;45.124;38.966;2023-05-10T03:11:35;10.46;95.67
65203;HTU21D;51788;45.124;38.966;2023-05-10T03:14:16;10.49;95.62
65203;HTU21D;51788;45.124;38.966;2023-05-10T03:16:56;10.45;95.63
65203;HTU21D;51788;45.124;38.966;2023-05-10T03:19:27;10.42;95.69
65203;HTU21D;51788;45.124;38.966;2023-05-10T03:21:59;10.44;95.74
65203;HTU21D;51788;45.124;38.966;2023-05-10T03:24:28;10.43;95.68
65203;HTU21D;51788;45.124;38.966;2023-05-10T03:27:00;10.42;95.73
65203;HTU21D;51788;45.124;38.966;2023-05-10T03:29:29;10.48;95.74
65203;HTU21D;51788;45.124;38.966;2023-05-10T03:31:59;10.52;95.64
65203;HTU21D;51788;45.124;38.966;2023-05-10T03:34:29;10.55;95.52
65203;HTU21D;51788;45.124;38.966;2023-05-10T03:36:56;10.59;95.50
65203;HTU21D;51788;45.124;38.966;2023-05-10T03:39:23;10.64;95.42
65203;HTU21D;51788;45.124;38.966;2023-05-10T03:41:56;10.68;95.29
65203;HTU21D;51788;45.124;38.966;2023-05-10T03:44:22;10.69;95.19
65203;HTU21D;51788;45.124;38.966;2023-05-10T03:46:49;10.68;95.17
65203;HTU21D;51788;45.124;38.966;2023-05-10T03:49:15;10.68;95.20
65203;HTU21D;51788;45.124;38.966;2023-05-10T03:51:41;10.68;95.16
65203;HTU21D;51788;45.124;38.966;2023-05-10T03:54:07;10.65;95.14
65203;HTU21D;51788;45.124;38.966;2023-05-10T03:56:33;10.65;95.20
65203;HTU21D;51788;45.124;38.966;2023-05-10T03:58:59;10.66;95.12
65203;HTU21D;51788;45.124;38.966;2023-05-10T04:01:25;10.63;94.96
65203;HTU21D;51788;45.124;38.966;2023-05-10T04:03:51;10.58;94.98
65203;HTU21D;51788;45.124;38.966;2023-05-10T04:06:17;10.46;95.15
65203;HTU21D;51788;45.124;38.966;2023-05-10T04:08:43;10.45;95.14
65203;HTU21D;51788;45.124;38.966;2023-05-10T04:11:11;10.49;95.14
65203;HTU21D;51788;45.124;38.966;2023-05-10T04:13:37;10.53;95.04
65203;HTU21D;51788;45.124;38.966;2023-05-10T04:16:03;10.54;94.79
65203;HTU21D;51788;45.124;38.966;2023-05-10T04:18:30;10.54;94.64
65203;HTU21D;51788;45.124;38.966;2023-05-10T04:20:56;10.62;94.27
65203;HTU21D;51788;45.124;38.966;2023-05-10T04:23:22;10.66;94.03
65203;HTU21D;51788;45.124;38.966;2023-05-10T04:25:48;10.71;93.87
65203;HTU21D;51788;45.124;38.966;2023-05-10T04:28:14;10.75;93.75
65203;HTU21D;51788;45.124;38.966;2023-05-10T04:30:40;10.84;93.61
65203;HTU21D;51788;45.124;38.966;2023-05-10T04:33:06;10.80;93.31
65203;HTU21D;51788;45.124;38.966;2023-05-10T04:35:32;10.82;93.40
65203;HTU21D;51788;45.124;38.966;2023-05-10T04:37:58;10.94;93.25
65203;HTU21D;51788;45.124;38.966;2023-05-10T04:40:24;10.86;93.08
65203;HTU21D;51788;45.124;38.966;2023-05-10T04:42:50;10.83;93.10
65203;HTU21D;51788;45.124;38.966;2023-05-10T04:45:16;10.92;93.09
65203;HTU21D;51788;45.124;38.966;2023-05-10T04:47:42;10.97;92.88
65203;HTU21D;51788;45.124;38.966;2023-05-10T04:50:08;10.97;92.44
65203;HTU21D;51788;45.124;38.966;2023-05-10T04:52:34;10.98;92.55
65203;HTU21D;51788;45.124;38.966;2023-05-10T04:55:00;11.00;92.29
65203;HTU21D;51788;45.124;38.966;2023-05-10T04:57:26;10.83;92.32
65203;HTU21D;51788;45.124;38.966;2023-05-10T04:59:52;10.70;92.76
65203;HTU21D;51788;45.124;38.966;2023-05-10T05:02:18;10.59;92.94
65203;HTU21D;51788;45.124;38.966;2023-05-10T05:04:44;10.60;93.01
65203;HTU21D;51788;45.124;38.966;2023-05-10T05:07:10;10.69;92.88
65203;HTU21D;51788;45.124;38.966;2023-05-10T05:09:36;10.80;92.62
65203;HTU21D;51788;45.124;38.966;2023-05-10T05:12:02;10.83;92.40
65203;HTU21D;51788;45.124;38.966;2023-05-10T05:14:28;10.72;92.27
65203;HTU21D;51788;45.124;38.966;2023-05-10T05:16:54;10.48;92.57
65203;HTU21D;51788;45.124;38.966;2023-05-10T05:19:21;10.31;92.99
65203;HTU21D;51788;45.124;38.966;2023-05-10T05:21:48;10.27;93.17
65203;HTU21D;51788;45.124;38.966;2023-05-10T05:24:14;10.20;93.25
65203;HTU21D;51788;45.124;38.966;2023-05-10T05:26:40;10.13;93.22
65203;HTU21D;51788;45.124;38.966;2023-05-10T05:29:06;10.19;93.33
65203;HTU21D;51788;45.124;38.966;2023-05-10T05:31:32;10.25;93.10
65203;HTU21D;51788;45.124;38.966;2023-05-10T05:33:57;10.30;92.92
65203;HTU21D;51788;45.124;38.966;2023-05-10T05:36:23;10.27;92.80
65203;HTU21D;51788;45.124;38.966;2023-05-10T05:38:49;10.33;92.72
65203;HTU21D;51788;45.124;38.966;2023-05-10T05:41:15;10.42;92.48
65203;HTU21D;51788;45.124;38.966;2023-05-10T05:43:41;10.52;92.35
65203;HTU21D;51788;45.124;38.966;2023-05-10T05:46:07;10.56;92.09
65203;HTU21D;51788;45.124;38.966;2023-05-10T05:48:36;10.63;92.07
65203;HTU21D;51788;45.124;38.966;2023-05-10T05:51:02;10.67;91.59
65203;HTU21D;51788;45.124;38.966;2023-05-10T05:53:28;10.67;91.46
65203;HTU21D;51788;45.124;38.966;2023-05-10T05:55:56;10.59;91.60
65203;HTU21D;51788;45.124;38.966;2023-05-10T05:58:23;10.65;91.64
65203;HTU21D;51788;45.124;38.966;2023-05-10T06:00:49;10.68;91.62
65203;HTU21D;51788;45.124;38.966;2023-05-10T06:03:15;10.68;91.50
65203;HTU21D;51788;45.124;38.966;2023-05-10T06:05:41;10.70;91.18
65203;HTU21D;51788;45.124;38.966;2023-05-10T06:08:07;10.64;91.19
65203;HTU21D;51788;45.124;38.966;2023-05-10T06:10:33;10.53;91.33
65203;HTU21D;51788;45.124;38.966;2023-05-10T06:12:59;10.40;91.63
65203;HTU21D;51788;45.124;38.966;2023-05-10T06:15:25;10.41;91.58
65203;HTU21D;51788;45.124;38.966;2023-05-10T06:17:51;10.52;91.47
65203;HTU21D;51788;45.124;38.966;2023-05-10T06:20:17;10.71;90.89
65203;HTU21D;51788;45.124;38.966;2023-05-10T06:22:43;10.81;90.49
65203;HTU21D;51788;45.124;38.966;2023-05-10T06:25:10;10.89;90.16
65203;HTU21D;51788;45.124;38.966;2023-05-10T06:27:36;10.94;90.08
65203;HTU21D;51788;45.124;38.966;2023-05-10T06:30:02;10.84;89.69
65203;HTU21D;51788;45.124;38.966;2023-05-10T06:32:28;10.81;90.15
65203;HTU21D;51788;45.124;38.966;2023-05-10T06:34:54;10.90;89.97
65203;HTU21D;51788;45.124;38.966;2023-05-10T06:37:20;10.93;89.46
65203;HTU21D;51788;45.124;38.966;2023-05-10T06:39:46;10.89;89.63
65203;HTU21D;51788;45.124;38.966;2023-05-10T06:42:12;10.92;89.37
65203;HTU21D;51788;45.124;38.966;2023-05-10T06:44:38;10.95;89.02
65203;HTU21D;51788;45.124;38.966;2023-05-10T06:47:04;10.98;88.64
65203;HTU21D;51788;45.124;38.966;2023-05-10T06:49:30;11.13;88.55
65203;HTU21D;51788;45.124;38.966;2023-05-10T06:51:56;11.15;88.54
65203;HTU21D;51788;45.124;38.966;2023-05-10T06:54:22;11.15;88.36
65203;HTU21D;51788;45.124;38.966;2023-05-10T06:56:48;11.13;88.64
65203;HTU21D;51788;45.124;38.966;2023-05-10T06:59:14;11.26;88.27
65203;HTU21D;51788;45.124;38.966;2023-05-10T07:01:42;11.56;88.08
65203;HTU21D;51788;45.124;38.966;2023-05-10T07:04:08;11.87;87.21
65203;HTU21D;51788;45.124;38.966;2023-05-10T07:06:34;12.14;86.79
65203;HTU21D;51788;45.124;38.966;2023-05-10T07:09:01;12.41;85.74
65203;HTU21D;51788;45.124;38.966;2023-05-10T07:11:27;12.38;85.75
65203;HTU21D;51788;45.124;38.966;2023-05-10T07:13:52;12.46;85.61
65203;HTU21D;51788;45.124;38.966;2023-05-10T07:16:18;12.55;85.14
65203;HTU21D;51788;45.124;38.966;2023-05-10T07:18:44;12.48;84.99
65203;HTU21D;51788;45.124;38.966;2023-05-10T07:21:10;12.43;84.48
65203;HTU21D;51788;45.124;38.966;2023-05-10T07:23:36;12.41;83.97
65203;HTU21D;51788;45.124;38.966;2023-05-10T07:26:02;12.41;83.90
65203;HTU21D;51788;45.124;38.966;2023-05-10T07:28:28;12.44;83.95
65203;HTU21D;51788;45.124;38.966;2023-05-10T07:30:54;12.26;84.09
65203;HTU21D;51788;45.124;38.966;2023-05-10T07:33:20;12.12;84.38
65203;HTU21D;51788;45.124;38.966;2023-05-10T07:35:46;11.98;84.31
65203;HTU21D;51788;45.124;38.966;2023-05-10T07:38:12;11.93;84.83
65203;HTU21D;51788;45.124;38.966;2023-05-10T07:40:39;12.01;84.99
65203;HTU21D;51788;45.124;38.966;2023-05-10T07:43:05;12.18;84.28
65203;HTU21D;51788;45.124;38.966;2023-05-10T07:45:31;12.34;84.34
65203;HTU21D;51788;45.124;38.966;2023-05-10T07:47:58;12.23;84.09
65203;HTU21D;51788;45.124;38.966;2023-05-10T07:50:23;12.41;84.07
65203;HTU21D;51788;45.124;38.966;2023-05-10T07:52:49;12.35;83.01
65203;HTU21D;51788;45.124;38.966;2023-05-10T07:55:15;12.13;83.08
65203;HTU21D;51788;45.124;38.966;2023-05-10T07:57:43;12.10;82.99
65203;HTU21D;51788;45.124;38.966;2023-05-10T08:00:12;12.26;83.32
65203;HTU21D;51788;45.124;38.966;2023-05-10T08:02:38;12.34;82.98
65203;HTU21D;51788;45.124;38.966;2023-05-10T08:05:05;12.34;82.73
65203;HTU21D;51788;45.124;38.966;2023-05-10T08:07:31;12.40;82.54
65203;HTU21D;51788;45.124;38.966;2023-05-10T08:09:57;12.50;82.52
65203;HTU21D;51788;45.124;38.966;2023-05-10T08:12:23;12.63;81.87
65203;HTU21D;51788;45.124;38.966;2023-05-10T08:14:49;12.77;81.93
65203;HTU21D;51788;45.124;38.966;2023-05-10T08:17:15;12.60;81.74
65203;HTU21D;51788;45.124;38.966;2023-05-10T08:19:41;12.40;82.38
65203;HTU21D;51788;45.124;38.966;2023-05-10T08:22:07;12.43;81.96
65203;HTU21D;51788;45.124;38.966;2023-05-10T08:24:33;12.61;81.79
65203;HTU21D;51788;45.124;38.966;2023-05-10T08:27:05;12.71;81.71
65203;HTU21D;51788;45.124;38.966;2023-05-10T08:29:31;12.62;81.38
65203;HTU21D;51788;45.124;38.966;2023-05-10T08:31:57;12.61;81.64
65203;HTU21D;51788;45.124;38.966;2023-05-10T08:34:23;12.55;81.61
65203;HTU21D;51788;45.124;38.966;2023-05-10T08:36:49;12.63;81.56
65203;HTU21D;51788;45.124;38.966;2023-05-10T08:39:15;12.72;80.95
65203;HTU21D;51788;45.124;38.966;2023-05-10T08:41:44;12.71;81.17
65203;HTU21D;51788;45.124;38.966;2023-05-10T08:44:10;12.47;81.59
65203;HTU21D;51788;45.124;38.966;2023-05-10T08:46:37;12.55;81.33
65203;HTU21D;51788;45.124;38.966;2023-05-10T08:49:07;12.69;81.32
65203;HTU21D;51788;45.124;38.966;2023-05-10T08:51:36;12.65;81.37
65203;HTU21D;51788;45.124;38.966;2023-05-10T08:54:04;12.84;80.77
65203;HTU21D;51788;45.124;38.966;2023-05-10T08:56:31;12.97;80.14
65203;HTU21D;51788;45.124;38.966;2023-05-10T08:58:57;13.06;79.78
65203;HTU21D;51788;45.124;38.966;2023-05-10T09:01:24;12.70;80.52
65203;HTU21D;51788;45.124;38.966;2023-05-10T09:03:51;12.73;80.85
65203;HTU21D;51788;45.124;38.966;2023-05-10T09:06:17;12.85;80.46
65203;HTU21D;51788;45.124;38.966;2023-05-10T09:08:43;12.92;79.93
65203;HTU21D;51788;45.124;38.966;2023-05-10T09:11:11;12.94;80.20
65203;HTU21D;51788;45.124;38.966;2023-05-10T09:13:37;12.94;80.00
65203;HTU21D;51788;45.124;38.966;2023-05-10T09:16:03;12.86;80.29
65203;HTU21D;51788;45.124;38.966;2023-05-10T09:18:30;12.77;80.46
65203;HTU21D;51788;45.124;38.966;2023-05-10T09:20:56;12.81;80.43
65203;HTU21D;51788;45.124;38.966;2023-05-10T09:23:22;12.69;80.52
65203;HTU21D;51788;45.124;38.966;2023-05-10T09:26:02;12.63;81.17
65203;HTU21D;51788;45.124;38.966;2023-05-10T09:28:34;12.94;80.60
65203;HTU21D;51788;45.124;38.966;2023-05-10T09:31:15;13.07;79.99
65203;HTU21D;51788;45.124;38.966;2023-05-10T09:33:50;12.86;80.49
65203;HTU21D;51788;45.124;38.966;2023-05-10T09:36:17;12.80;80.88
65203;HTU21D;51788;45.124;38.966;2023-05-10T09:38:52;12.90;80.75
65203;HTU21D;51788;45.124;38.966;2023-05-10T09:41:22;13.00;80.74
65203;HTU21D;51788;45.124;38.966;2023-05-10T09:43:49;13.25;80.19
65203;HTU21D;51788;45.124;38.966;2023-05-10T09:46:16;13.18;79.72
65203;HTU21D;51788;45.124;38.966;2023-05-10T09:48:44;13.11;80.01
65203;HTU21D;51788;45.124;38.966;2023-05-10T09:51:14;13.08;80.10
65203;HTU21D;51788;45.124;38.966;2023-05-10T09:53:44;13.16;79.68
65203;HTU21D;51788;45.124;38.966;2023-05-10T09:56:10;13.08;79.84
65203;HTU21D;51788;45.124;38.966;2023-05-10T09:58:39;13.06;80.15
65203;HTU21D;51788;45.124;38.966;2023-05-10T10:01:11;13.00;80.13
65203;HTU21D;51788;45.124;38.966;2023-05-10T10:03:42;12.86;80.50
65203;HTU21D;51788;45.124;38.966;2023-05-10T10:06:08;12.86;80.57
65203;HTU21D;51788;45.124;38.966;2023-05-10T10:08:34;12.94;80.16
65203;HTU21D;51788;45.124;38.966;2023-05-10T10:11:00;13.02;79.95
65203;HTU21D;51788;45.124;38.966;2023-05-10T10:13:27;13.31;79.11
65203;HTU21D;51788;45.124;38.966;2023-05-10T10:15:54;13.33;78.79
65203;HTU21D;51788;45.124;38.966;2023-05-10T10:18:20;13.48;78.60
65203;HTU21D;51788;45.124;38.966;2023-05-10T10:20:54;13.49;78.43
65203;HTU21D;51788;45.124;38.966;2023-05-10T10:23:20;13.58;78.49
65203;HTU21D;51788;45.124;38.966;2023-05-10T10:25:46;13.64;77.41
65203;HTU21D;51788;45.124;38.966;2023-05-10T10:31:10;14.09;76.99
65203;HTU21D;51788;45.124;38.966;2023-05-10T10:36:13;14.59;75.36
65203;HTU21D;51788;45.124;38.966;2023-05-10T10:47:11;14.32;73.73
65203;HTU21D;51788;45.124;38.966;2023-05-10T10:49:51;13.93;74.89
65203;HTU21D;51788;45.124;38.966;2023-05-10T10:52:29;13.68;75.76
65203;HTU21D;51788;45.124;38.966;2023-05-10T10:57:25;14.03;75.20
65203;HTU21D;51788;45.124;38.966;2023-05-10T11:00:17;14.15;74.51
65203;HTU21D;51788;45.124;38.966;2023-05-10T11:02:43;14.20;74.06
65203;HTU21D;51788;45.124;38.966;2023-05-10T11:07:59;13.79;74.44
65203;HTU21D;51788;45.124;38.966;2023-05-10T11:10:26;13.71;74.92
65203;HTU21D;51788;45.124;38.966;2023-05-10T11:13:03;13.76;74.35
65203;HTU21D;51788;45.124;38.966;2023-05-10T11:15:34;13.83;74.49
65203;HTU21D;51788;45.124;38.966;2023-05-10T11:18:17;14.03;73.78
65203;HTU21D;51788;45.124;38.966;2023-05-10T11:20:44;14.26;73.61
65203;HTU21D;51788;45.124;38.966;2023-05-10T11:23:15;14.50;73.12
65203;HTU21D;51788;45.124;38.966;2023-05-10T11:25:44;14.67;72.75
65203;HTU21D;51788;45.124;38.966;2023-05-10T11:28:11;14.49;73.11
65203;HTU21D;51788;45.124;38.966;2023-05-10T11:30:41;14.18;73.73
65203;HTU21D;51788;45.124;38.966;2023-05-10T11:33:09;14.21;74.06
65203;HTU21D;51788;45.124;38.966;2023-05-10T11:35:39;14.14;73.74
65203;HTU21D;51788;45.124;38.966;2023-05-10T11:38:11;14.12;74.35
65203;HTU21D;51788;45.124;38.966;2023-05-10T11:40:37;14.12;73.67
65203;HTU21D;51788;45.124;38.966;2023-05-10T11:43:04;13.88;74.25
65203;HTU21D;51788;45.124;38.966;2023-05-10T11:45:34;13.91;74.54
65203;HTU21D;51788;45.124;38.966;2023-05-10T11:48:01;13.89;74.41
65203;HTU21D;51788;45.124;38.966;2023-05-10T11:50:28;13.88;74.28
65203;HTU21D;51788;45.124;38.966;2023-05-10T11:52:57;13.91;73.98
65203;HTU21D;51788;45.124;38.966;2023-05-10T11:55:24;14.10;73.78
65203;HTU21D;51788;45.124;38.966;2023-05-10T11:57:54;14.39;73.15
65203;HTU21D;51788;45.124;38.966;2023-05-10T12:00:21;14.60;72.63
65203;HTU21D;51788;45.124;38.966;2023-05-10T12:02:48;14.71;71.95
65203;HTU21D;51788;45.124;38.966;2023-05-10T12:05:14;14.75;71.25
65203;HTU21D;51788;45.124;38.966;2023-05-10T12:07:40;14.81;70.45
65203;HTU21D;51788;45.124;38.966;2023-05-10T12:10:13;14.72;70.23
65203;HTU21D;51788;45.124;38.966;2023-05-10T12:12:45;14.56;70.82
65203;HTU21D;51788;45.124;38.966;2023-05-10T12:15:19;14.56;71.22
65203;HTU21D;51788;45.124;38.966;2023-05-10T12:17:46;14.48;71.17
65203;HTU21D;51788;45.124;38.966;2023-05-10T12:20:22;14.49;71.26
65203;HTU21D;51788;45.124;38.966;2023-05-10T12:22:57;14.73;70.85
65203;HTU21D;51788;45.124;38.966;2023-05-10T12:25:29;14.67;70.79
65203;HTU21D;51788;45.124;38.966;2023-05-10T12:27:58;14.40;70.53
65203;HTU21D;51788;45.124;38.966;2023-05-10T12:30:28;14.10;71.48
65203;HTU21D;51788;45.124;38.966;2023-05-10T12:33:02;14.01;71.26
65203;HTU21D;51788;45.124;38.966;2023-05-10T12:35:32;13.92;71.22
65203;HTU21D;51788;45.124;38.966;2023-05-10T12:37:58;13.80;71.69
65203;HTU21D;51788;45.124;38.966;2023-05-10T12:40:25;13.95;71.80
65203;HTU21D;51788;45.124;38.966;2023-05-10T12:42:51;14.17;71.22
65203;HTU21D;51788;45.124;38.966;2023-05-10T12:45:18;14.09;71.26
65203;HTU21D;51788;45.124;38.966;2023-05-10T12:47:44;14.05;70.42
65203;HTU21D;51788;45.124;38.966;2023-05-10T12:50:10;13.96;71.55
65203;HTU21D;51788;45.124;38.966;2023-05-10T12:52:36;14.12;71.45
65203;HTU21D;51788;45.124;38.966;2023-05-10T12:55:02;14.17;71.00
65203;HTU21D;51788;45.124;38.966;2023-05-10T12:57:28;14.28;70.61
65203;HTU21D;51788;45.124;38.966;2023-05-10T12:59:55;14.27;70.20
65203;HTU21D;51788;45.124;38.966;2023-05-10T13:02:21;14.21;70.45
65203;HTU21D;51788;45.124;38.966;2023-05-10T13:04:49;14.22;70.49
65203;HTU21D;51788;45.124;38.966;2023-05-10T13:07:15;14.19;70.19
65203;HTU21D;51788;45.124;38.966;2023-05-10T13:09:40;14.04;70.35
65203;HTU21D;51788;45.124;38.966;2023-05-10T13:12:07;14.05;70.51
65203;HTU21D;51788;45.124;38.966;2023-05-10T13:14:32;14.20;70.31
65203;HTU21D;51788;45.124;38.966;2023-05-10T13:16:58;14.12;70.13
65203;HTU21D;51788;45.124;38.966;2023-05-10T13:19:25;14.13;69.65
65203;HTU21D;51788;45.124;38.966;2023-05-10T13:21:52;14.26;69.78
65203;HTU21D;51788;45.124;38.966;2023-05-10T13:24:18;14.19;69.36
65203;HTU21D;51788;45.124;38.966;2023-05-10T13:26:44;14.15;69.51
65203;HTU21D;51788;45.124;38.966;2023-05-10T13:29:10;14.23;69.17
65203;HTU21D;51788;45.124;38.966;2023-05-10T13:31:36;14.30;68.77
65203;HTU21D;51788;45.124;38.966;2023-05-10T13:34:03;14.28;68.74
65203;HTU21D;51788;45.124;38.966;2023-05-10T13:36:29;14.26;68.46
65203;HTU21D;51788;45.124;38.966;2023-05-10T13:38:56;14.29;68.42
65203;HTU21D;51788;45.124;38.966;2023-05-10T13:41:22;14.29;68.50
65203;HTU21D;51788;45.124;38.966;2023-05-10T13:43:48;14.24;68.60
65203;HTU21D;51788;45.124;38.966;2023-05-10T13:46:14;14.11;68.69
65203;HTU21D;51788;45.124;38.966;2023-05-10T13:48:40;14.01;69.02
65203;HTU21D;51788;45.124;38.966;2023-05-10T13:51:06;13.96;69.01
65203;HTU21D;51788;45.124;38.966;2023-05-10T13:53:32;13.93;69.11
65203;HTU21D;51788;45.124;38.966;2023-05-10T13:55:58;13.98;69.08
65203;HTU21D;51788;45.124;38.966;2023-05-10T13:58:24;13.98;68.95
65203;HTU21D;51788;45.124;38.966;2023-05-10T14:00:50;13.91;69.14
65203;HTU21D;51788;45.124;38.966;2023-05-10T14:03:16;13.89;68.48
65203;HTU21D;51788;45.124;38.966;2023-05-10T14:05:42;13.88;68.46
65203;HTU21D;51788;45.124;38.966;2023-05-10T14:08:08;13.89;67.94
65203;HTU21D;51788;45.124;38.966;2023-05-10T14:10:35;13.88;68.17
65203;HTU21D;51788;45.124;38.966;2023-05-10T14:13:02;13.82;68.00
65203;HTU21D;51788;45.124;38.966;2023-05-10T14:15:28;13.69;67.97
65203;HTU21D;51788;45.124;38.966;2023-05-10T14:17:54;13.56;68.36
65203;HTU21D;51788;45.124;38.966;2023-05-10T14:20:20;13.54;68.45
65203;HTU21D;51788;45.124;38.966;2023-05-10T14:22:46;13.55;68.22
65203;HTU21D;51788;45.124;38.966;2023-05-10T14:25:13;13.50;68.17
65203;HTU21D;51788;45.124;38.966;2023-05-10T14:27:40;13.51;68.64
65203;HTU21D;51788;45.124;38.966;2023-05-10T14:30:06;13.51;68.53
65203;HTU21D;51788;45.124;38.966;2023-05-10T14:32:32;13.49;68.53
65203;HTU21D;51788;45.124;38.966;2023-05-10T14:34:58;13.46;68.27
65203;HTU21D;51788;45.124;38.966;2023-05-10T14:37:25;13.38;68.34
65203;HTU21D;51788;45.124;38.966;2023-05-10T14:39:51;13.31;68.24
65203;HTU21D;51788;45.124;38.966;2023-05-10T14:42:18;13.21;68.89
65203;HTU21D;51788;45.124;38.966;2023-05-10T14:44:44;13.15;68.87
65203;HTU21D;51788;45.124;38.966;2023-05-10T14:47:09;13.05;69.33
65203;HTU21D;51788;45.124;38.966;2023-05-10T14:49:35;13.06;69.42
65203;HTU21D;51788;45.124;38.966;2023-05-10T14:52:01;13.02;69.63
65203;HTU21D;51788;45.124;38.966;2023-05-10T14:54:27;13.06;69.82
65203;HTU21D;51788;45.124;38.966;2023-05-10T14:56:53;13.09;69.80
65203;HTU21D;51788;45.124;38.966;2023-05-10T14:59:20;13.10;69.81
65203;HTU21D;51788;45.124;38.966;2023-05-10T15:01:46;13.04;69.98
65203;HTU21D;51788;45.124;38.966;2023-05-10T15:04:12;13.04;70.04
65203;HTU21D;51788;45.124;38.966;2023-05-10T15:06:38;12.95;69.90
65203;HTU21D;51788;45.124;38.966;2023-05-10T15:09:04;12.94;70.27
65203;HTU21D;51788;45.124;38.966;2023-05-10T15:11:30;12.99;70.34
65203;HTU21D;51788;45.124;38.966;2023-05-10T15:13:56;13.01;70.13
65203;HTU21D;51788;45.124;38.966;2023-05-10T15:16:22;12.92;69.96
65203;HTU21D;51788;45.124;38.966;2023-05-10T15:18:48;12.86;69.94
65203;HTU21D;51788;45.124;38.966;2023-05-10T15:21:14;12.82;70.21
65203;HTU21D;51788;45.124;38.966;2023-05-10T15:23:40;12.80;70.42
65203;HTU21D;51788;45.124;38.966;2023-05-10T15:26:06;12.78;70.51
65203;HTU21D;51788;45.124;38.966;2023-05-10T15:28:33;12.71;70.35
65203;HTU21D;51788;45.124;38.966;2023-05-10T15:30:59;12.69;70.58